sensor_id;sensor_type;location;lat;lon;timestamp;P1;durP1;ratioP1;P2;durP2;ratioP2
34916;SDS011;21126;48.308;11.750;2022-08-18T00:00:16;9.10;;;6.50;;
34916;SDS011;21126;48.308;11.750;2022-08-18T00:02:45;8.73;;;7.20;;
34916;SDS011;21126;48.308;11.750;2022-08-18T00:05:26;7.13;;;6.37;;
34916;SDS011;21126;48.308;11.750;2022-08-18T00:07:56;9.50;;;7.57;;
34916;SDS011;21126;48.308;11.750;2022-08-18T00:10:24;7.33;;;6.40;;
34916;SDS011;21126;48.308;11.750;2022-08-18T00:12:52;10.30;;;6.90;;
34916;SDS011;21126;48.308;11.750;2022-08-18T00:15:26;9.43;;;7.10;;
34916;SDS011;21126;48.308;11.750;2022-08-18T00:17:53;8.23;;;6.83;;
34916;SDS011;21126;48.308;11.750;2022-08-18T00:20:21;8.00;;;6.67;;
34916;SDS011;21126;48.308;11.750;2022-08-18T00:22:50;14.20;;;7.07;;
34916;SDS011;21126;48.308;11.750;2022-08-18T00:25:18;6.90;;;5.90;;
34916;SDS011;21126;48.308;11.750;2022-08-18T00:27:46;7.30;;;5.73;;
34916;SDS011;21126;48.308;11.750;2022-08-18T00:30:15;8.67;;;6.70;;
34916;SDS011;21126;48.308;11.750;2022-08-18T00:32:52;9.20;;;6.63;;
34916;SDS011;21126;48.308;11.750;2022-08-18T00:35:22;7.87;;;6.27;;
34916;SDS011;21126;48.308;11.750;2022-08-18T00:37:55;9.60;;;6.23;;
34916;SDS011;21126;48.308;11.750;2022-08-18T00:40:26;7.90;;;5.70;;
34916;SDS011;21126;48.308;11.750;2022-08-18T00:43:04;7.40;;;5.50;;
34916;SDS011;21126;48.308;11.750;2022-08-18T00:45:35;11.90;;;6.90;;
34916;SDS011;21126;48.308;11.750;2022-08-18T00:48:05;8.70;;;7.80;;
34916;SDS011;21126;48.308;11.750;2022-08-18T00:50:45;7.37;;;6.67;;
34916;SDS011;21126;48.308;11.750;2022-08-18T00:56:05;8.30;;;6.40;;
34916;SDS011;21126;48.308;11.750;2022-08-18T00:58:41;11.20;;;6.57;;
34916;SDS011;21126;48.308;11.750;2022-08-18T01:01:14;8.53;;;6.50;;
34916;SDS011;21126;48.308;11.750;2022-08-18T01:03:46;7.33;;;6.40;;
34916;SDS011;21126;48.308;11.750;2022-08-18T01:08:57;6.97;;;6.27;;
34916;SDS011;21126;48.308;11.750;2022-08-18T01:11:26;8.23;;;6.90;;
34916;SDS011;21126;48.308;11.750;2022-08-18T01:13:53;9.30;;;6.23;;
34916;SDS011;21126;48.308;11.750;2022-08-18T01:16:22;10.27;;;6.73;;
34916;SDS011;21126;48.308;11.750;2022-08-18T01:19:22;8.17;;;6.10;;
34916;SDS011;21126;48.308;11.750;2022-08-18T01:22:14;6.87;;;5.90;;
34916;SDS011;21126;48.308;11.750;2022-08-18T01:24:53;7.20;;;6.50;;
34916;SDS011;21126;48.308;11.750;2022-08-18T01:27:42;7.63;;;6.83;;
34916;SDS011;21126;48.308;11.750;2022-08-18T01:30:11;8.70;;;6.47;;
34916;SDS011;21126;48.308;11.750;2022-08-18T01:32:42;6.53;;;5.43;;
34916;SDS011;21126;48.308;11.750;2022-08-18T01:35:13;6.30;;;5.50;;
34916;SDS011;21126;48.308;11.750;2022-08-18T01:37:42;8.80;;;5.73;;
34916;SDS011;21126;48.308;11.750;2022-08-18T01:40:11;7.30;;;6.10;;
34916;SDS011;21126;48.308;11.750;2022-08-18T01:43:01;7.33;;;6.33;;
34916;SDS011;21126;48.308;11.750;2022-08-18T01:45:29;6.77;;;6.07;;
34916;SDS011;21126;48.308;11.750;2022-08-18T01:47:59;7.33;;;6.50;;
34916;SDS011;21126;48.308;11.750;2022-08-18T01:50:26;6.60;;;5.60;;
34916;SDS011;21126;48.308;11.750;2022-08-18T01:52:55;7.00;;;6.20;;
34916;SDS011;21126;48.308;11.750;2022-08-18T01:55:22;7.20;;;5.73;;
34916;SDS011;21126;48.308;11.750;2022-08-18T01:57:50;6.70;;;5.67;;
34916;SDS011;21126;48.308;11.750;2022-08-18T02:00:17;7.43;;;5.80;;
34916;SDS011;21126;48.308;11.750;2022-08-18T02:02:44;6.87;;;6.10;;
34916;SDS011;21126;48.308;11.750;2022-08-18T02:05:32;6.13;;;5.50;;
34916;SDS011;21126;48.308;11.750;2022-08-18T02:08:08;7.30;;;5.50;;
34916;SDS011;21126;48.308;11.750;2022-08-18T02:10:38;7.50;;;6.57;;
34916;SDS011;21126;48.308;11.750;2022-08-18T02:13:05;6.97;;;6.27;;
34916;SDS011;21126;48.308;11.750;2022-08-18T02:15:33;6.70;;;6.00;;
34916;SDS011;21126;48.308;11.750;2022-08-18T02:18:00;6.63;;;5.80;;
34916;SDS011;21126;48.308;11.750;2022-08-18T02:20:27;6.97;;;5.70;;
34916;SDS011;21126;48.308;11.750;2022-08-18T02:22:54;7.57;;;5.60;;
34916;SDS011;21126;48.308;11.750;2022-08-18T02:25:23;7.10;;;6.40;;
34916;SDS011;21126;48.308;11.750;2022-08-18T02:27:50;6.00;;;5.30;;
34916;SDS011;21126;48.308;11.750;2022-08-18T02:30:18;6.67;;;5.87;;
34916;SDS011;21126;48.308;11.750;2022-08-18T02:32:45;8.50;;;5.40;;
34916;SDS011;21126;48.308;11.750;2022-08-18T02:35:12;6.97;;;6.27;;
34916;SDS011;21126;48.308;11.750;2022-08-18T02:37:40;6.40;;;5.80;;
34916;SDS011;21126;48.308;11.750;2022-08-18T02:40:08;7.00;;;6.30;;
34916;SDS011;21126;48.308;11.750;2022-08-18T02:42:41;6.43;;;5.70;;
34916;SDS011;21126;48.308;11.750;2022-08-18T02:45:09;6.60;;;5.23;;
34916;SDS011;21126;48.308;11.750;2022-08-18T02:47:38;5.90;;;4.93;;
34916;SDS011;21126;48.308;11.750;2022-08-18T02:50:08;7.10;;;5.80;;
34916;SDS011;21126;48.308;11.750;2022-08-18T02:52:36;7.37;;;6.17;;
34916;SDS011;21126;48.308;11.750;2022-08-18T02:55:05;6.50;;;5.50;;
34916;SDS011;21126;48.308;11.750;2022-08-18T02:57:33;6.00;;;5.40;;
34916;SDS011;21126;48.308;11.750;2022-08-18T03:00:00;7.13;;;6.20;;
34916;SDS011;21126;48.308;11.750;2022-08-18T03:02:27;6.40;;;5.47;;
34916;SDS011;21126;48.308;11.750;2022-08-18T03:04:54;5.60;;;4.90;;
34916;SDS011;21126;48.308;11.750;2022-08-18T03:07:20;6.10;;;5.50;;
34916;SDS011;21126;48.308;11.750;2022-08-18T03:09:47;5.90;;;4.90;;
34916;SDS011;21126;48.308;11.750;2022-08-18T03:12:14;6.43;;;5.83;;
34916;SDS011;21126;48.308;11.750;2022-08-18T03:14:41;6.30;;;5.43;;
34916;SDS011;21126;48.308;11.750;2022-08-18T03:17:08;8.57;;;6.27;;
34916;SDS011;21126;48.308;11.750;2022-08-18T03:19:35;9.10;;;6.27;;
34916;SDS011;21126;48.308;11.750;2022-08-18T03:22:02;6.97;;;5.57;;
34916;SDS011;21126;48.308;11.750;2022-08-18T03:24:50;8.07;;;5.37;;
34916;SDS011;21126;48.308;11.750;2022-08-18T03:27:17;6.87;;;6.17;;
34916;SDS011;21126;48.308;11.750;2022-08-18T03:29:44;6.37;;;5.40;;
34916;SDS011;21126;48.308;11.750;2022-08-18T03:32:11;6.47;;;5.60;;
34916;SDS011;21126;48.308;11.750;2022-08-18T03:34:38;7.00;;;5.70;;
34916;SDS011;21126;48.308;11.750;2022-08-18T03:37:05;6.33;;;5.20;;
34916;SDS011;21126;48.308;11.750;2022-08-18T03:39:31;5.37;;;4.80;;
34916;SDS011;21126;48.308;11.750;2022-08-18T03:41:58;6.57;;;5.83;;
34916;SDS011;21126;48.308;11.750;2022-08-18T03:44:31;7.10;;;6.03;;
34916;SDS011;21126;48.308;11.750;2022-08-18T03:47:07;7.37;;;6.60;;
34916;SDS011;21126;48.308;11.750;2022-08-18T03:49:36;6.87;;;5.77;;
34916;SDS011;21126;48.308;11.750;2022-08-18T03:52:06;7.30;;;6.33;;
34916;SDS011;21126;48.308;11.750;2022-08-18T03:54:35;6.03;;;5.43;;
34916;SDS011;21126;48.308;11.750;2022-08-18T03:57:03;7.10;;;6.27;;
34916;SDS011;21126;48.308;11.750;2022-08-18T03:59:34;7.00;;;5.43;;
34916;SDS011;21126;48.308;11.750;2022-08-18T04:02:02;6.13;;;5.20;;
34916;SDS011;21126;48.308;11.750;2022-08-18T04:04:30;6.40;;;5.40;;
34916;SDS011;21126;48.308;11.750;2022-08-18T04:06:58;6.67;;;5.83;;
34916;SDS011;21126;48.308;11.750;2022-08-18T04:09:31;7.60;;;6.30;;
34916;SDS011;21126;48.308;11.750;2022-08-18T04:12:03;7.60;;;6.60;;
34916;SDS011;21126;48.308;11.750;2022-08-18T04:14:42;8.17;;;6.50;;
34916;SDS011;21126;48.308;11.750;2022-08-18T04:17:18;8.80;;;6.53;;
34916;SDS011;21126;48.308;11.750;2022-08-18T04:19:54;8.03;;;6.27;;
34916;SDS011;21126;48.308;11.750;2022-08-18T04:22:21;8.60;;;6.87;;
34916;SDS011;21126;48.308;11.750;2022-08-18T04:24:50;7.77;;;6.67;;
34916;SDS011;21126;48.308;11.750;2022-08-18T04:27:18;6.60;;;5.90;;
34916;SDS011;21126;48.308;11.750;2022-08-18T04:29:47;7.70;;;5.67;;
34916;SDS011;21126;48.308;11.750;2022-08-18T04:32:14;7.77;;;6.53;;
34916;SDS011;21126;48.308;11.750;2022-08-18T04:34:41;8.70;;;6.10;;
34916;SDS011;21126;48.308;11.750;2022-08-18T04:37:08;7.30;;;6.07;;
34916;SDS011;21126;48.308;11.750;2022-08-18T04:39:35;7.30;;;6.53;;
34916;SDS011;21126;48.308;11.750;2022-08-18T04:42:03;7.73;;;6.70;;
34916;SDS011;21126;48.308;11.750;2022-08-18T04:44:31;7.47;;;6.13;;
34916;SDS011;21126;48.308;11.750;2022-08-18T04:46:59;7.37;;;6.60;;
34916;SDS011;21126;48.308;11.750;2022-08-18T04:49:27;7.13;;;6.10;;
34916;SDS011;21126;48.308;11.750;2022-08-18T04:51:55;7.40;;;6.40;;
34916;SDS011;21126;48.308;11.750;2022-08-18T04:55:02;9.40;;;6.30;;
34916;SDS011;21126;48.308;11.750;2022-08-18T04:57:30;6.27;;;5.50;;
34916;SDS011;21126;48.308;11.750;2022-08-18T05:00:00;7.80;;;6.40;;
34916;SDS011;21126;48.308;11.750;2022-08-18T05:02:28;7.67;;;6.50;;
34916;SDS011;21126;48.308;11.750;2022-08-18T05:04:58;12.33;;;6.27;;
34916;SDS011;21126;48.308;11.750;2022-08-18T05:07:26;12.30;;;7.30;;
34916;SDS011;21126;48.308;11.750;2022-08-18T05:09:53;9.43;;;7.07;;
34916;SDS011;21126;48.308;11.750;2022-08-18T05:12:20;9.80;;;6.90;;
34916;SDS011;21126;48.308;11.750;2022-08-18T05:14:51;7.20;;;6.30;;
34916;SDS011;21126;48.308;11.750;2022-08-18T05:17:18;8.13;;;7.30;;
34916;SDS011;21126;48.308;11.750;2022-08-18T05:19:45;9.50;;;6.20;;
34916;SDS011;21126;48.308;11.750;2022-08-18T05:22:14;12.30;;;7.20;;
34916;SDS011;21126;48.308;11.750;2022-08-18T05:24:53;9.23;;;6.90;;
34916;SDS011;21126;48.308;11.750;2022-08-18T05:27:20;7.90;;;6.57;;
34916;SDS011;21126;48.308;11.750;2022-08-18T05:29:47;7.83;;;7.03;;
34916;SDS011;21126;48.308;11.750;2022-08-18T05:32:17;7.87;;;7.07;;
34916;SDS011;21126;48.308;11.750;2022-08-18T05:35:14;7.30;;;6.37;;
34916;SDS011;21126;48.308;11.750;2022-08-18T05:40:45;6.67;;;6.00;;
34916;SDS011;21126;48.308;11.750;2022-08-18T05:43:39;6.20;;;5.47;;
34916;SDS011;21126;48.308;11.750;2022-08-18T05:46:17;6.77;;;5.67;;
34916;SDS011;21126;48.308;11.750;2022-08-18T05:48:51;8.93;;;7.20;;
34916;SDS011;21126;48.308;11.750;2022-08-18T05:51:20;7.73;;;5.77;;
34916;SDS011;21126;48.308;11.750;2022-08-18T05:54:00;6.50;;;5.80;;
34916;SDS011;21126;48.308;11.750;2022-08-18T05:56:47;6.40;;;5.73;;
34916;SDS011;21126;48.308;11.750;2022-08-18T05:59:22;9.40;;;6.80;;
34916;SDS011;21126;48.308;11.750;2022-08-18T06:02:10;5.90;;;5.30;;
34916;SDS011;21126;48.308;11.750;2022-08-18T06:04:59;7.03;;;6.10;;
34916;SDS011;21126;48.308;11.750;2022-08-18T06:07:40;8.50;;;6.80;;
34916;SDS011;21126;48.308;11.750;2022-08-18T06:10:12;6.80;;;5.93;;
34916;SDS011;21126;48.308;11.750;2022-08-18T06:12:41;9.57;;;5.97;;
34916;SDS011;21126;48.308;11.750;2022-08-18T06:21:54;8.23;;;6.23;;
34916;SDS011;21126;48.308;11.750;2022-08-18T06:25:00;7.70;;;6.37;;
34916;SDS011;21126;48.308;11.750;2022-08-18T06:27:53;6.20;;;5.60;;
34916;SDS011;21126;48.308;11.750;2022-08-18T06:41:53;8.60;;;4.97;;
34916;SDS011;21126;48.308;11.750;2022-08-18T06:44:22;7.20;;;6.37;;
34916;SDS011;21126;48.308;11.750;2022-08-18T06:46:58;7.13;;;6.43;;
34916;SDS011;21126;48.308;11.750;2022-08-18T06:49:53;8.03;;;6.10;;
34916;SDS011;21126;48.308;11.750;2022-08-18T06:55:01;8.17;;;7.37;;
34916;SDS011;21126;48.308;11.750;2022-08-18T06:57:55;8.40;;;7.10;;
34916;SDS011;21126;48.308;11.750;2022-08-18T07:00:26;15.33;;;7.30;;
34916;SDS011;21126;48.308;11.750;2022-08-18T07:03:06;8.63;;;6.97;;
34916;SDS011;21126;48.308;11.750;2022-08-18T07:08:31;8.10;;;7.30;;
34916;SDS011;21126;48.308;11.750;2022-08-18T07:11:18;8.10;;;7.13;;
34916;SDS011;21126;48.308;11.750;2022-08-18T07:13:54;7.63;;;6.90;;
34916;SDS011;21126;48.308;11.750;2022-08-18T07:16:41;8.93;;;7.30;;
34916;SDS011;21126;48.308;11.750;2022-08-18T07:19:29;10.00;;;7.10;;
34916;SDS011;21126;48.308;11.750;2022-08-18T07:22:05;8.07;;;7.23;;
34916;SDS011;21126;48.308;11.750;2022-08-18T07:24:43;7.77;;;6.90;;
34916;SDS011;21126;48.308;11.750;2022-08-18T07:27:15;8.00;;;6.93;;
34916;SDS011;21126;48.308;11.750;2022-08-18T07:35:18;9.87;;;7.20;;
34916;SDS011;21126;48.308;11.750;2022-08-18T07:38:48;10.47;;;8.00;;
34916;SDS011;21126;48.308;11.750;2022-08-18T07:41:16;8.27;;;7.47;;
34916;SDS011;21126;48.308;11.750;2022-08-18T07:46:58;12.73;;;7.20;;
34916;SDS011;21126;48.308;11.750;2022-08-18T07:49:40;9.20;;;6.90;;
34916;SDS011;21126;48.308;11.750;2022-08-18T07:52:31;10.10;;;7.77;;
34916;SDS011;21126;48.308;11.750;2022-08-18T07:55:27;9.10;;;7.27;;
34916;SDS011;21126;48.308;11.750;2022-08-18T08:12:49;7.53;;;6.27;;
34916;SDS011;21126;48.308;11.750;2022-08-18T08:22:23;7.10;;;6.40;;
34916;SDS011;21126;48.308;11.750;2022-08-18T08:28:16;7.47;;;6.23;;
34916;SDS011;21126;48.308;11.750;2022-08-18T08:31:08;6.40;;;5.80;;
34916;SDS011;21126;48.308;11.750;2022-08-18T08:36:40;7.80;;;5.90;;
34916;SDS011;21126;48.308;11.750;2022-08-18T08:39:13;8.80;;;6.00;;
34916;SDS011;21126;48.308;11.750;2022-08-18T08:42:06;7.67;;;6.97;;
34916;SDS011;21126;48.308;11.750;2022-08-18T08:44:59;8.23;;;6.60;;
34916;SDS011;21126;48.308;11.750;2022-08-18T08:50:30;7.27;;;6.57;;
34916;SDS011;21126;48.308;11.750;2022-08-18T08:53:07;8.57;;;6.63;;
34916;SDS011;21126;48.308;11.750;2022-08-18T08:56:07;8.20;;;5.80;;
34916;SDS011;21126;48.308;11.750;2022-08-18T09:18:31;6.00;;;5.40;;
34916;SDS011;21126;48.308;11.750;2022-08-18T09:24:24;8.47;;;6.03;;
34916;SDS011;21126;48.308;11.750;2022-08-18T09:38:23;8.00;;;7.20;;
34916;SDS011;21126;48.308;11.750;2022-08-18T09:41:36;8.60;;;7.80;;
34916;SDS011;21126;48.308;11.750;2022-08-18T09:49:50;8.13;;;7.33;;
34916;SDS011;21126;48.308;11.750;2022-08-18T09:53:30;7.93;;;7.10;;
34916;SDS011;21126;48.308;11.750;2022-08-18T10:02:11;9.00;;;8.10;;
34916;SDS011;21126;48.308;11.750;2022-08-18T10:07:50;8.50;;;7.70;;
34916;SDS011;21126;48.308;11.750;2022-08-18T10:16:30;8.50;;;7.60;;
34916;SDS011;21126;48.308;11.750;2022-08-18T10:19:47;8.40;;;7.60;;
34916;SDS011;21126;48.308;11.750;2022-08-18T10:23:08;7.60;;;6.90;;
34916;SDS011;21126;48.308;11.750;2022-08-18T10:25:42;8.50;;;7.40;;
34916;SDS011;21126;48.308;11.750;2022-08-18T10:29:01;8.97;;;7.90;;
34916;SDS011;21126;48.308;11.750;2022-08-18T10:31:17;7.70;;;7.00;;
34916;SDS011;21126;48.308;11.750;2022-08-18T10:36:44;8.00;;;7.30;;
34916;SDS011;21126;48.308;11.750;2022-08-18T10:39:22;7.33;;;6.50;;
34916;SDS011;21126;48.308;11.750;2022-08-18T10:42:19;8.53;;;7.63;;
34916;SDS011;21126;48.308;11.750;2022-08-18T10:45:02;7.90;;;7.10;;
34916;SDS011;21126;48.308;11.750;2022-08-18T10:56:45;15.87;;;8.30;;
34916;SDS011;21126;48.308;11.750;2022-08-18T10:59:27;15.73;;;9.50;;
34916;SDS011;21126;48.308;11.750;2022-08-18T11:05:07;14.50;;;10.13;;
34916;SDS011;21126;48.308;11.750;2022-08-18T11:07:38;17.60;;;9.57;;
34916;SDS011;21126;48.308;11.750;2022-08-18T11:10:52;19.80;;;9.60;;
34916;SDS011;21126;48.308;11.750;2022-08-18T11:17:06;11.00;;;7.70;;
34916;SDS011;21126;48.308;11.750;2022-08-18T11:19:46;12.03;;;8.13;;
34916;SDS011;21126;48.308;11.750;2022-08-18T11:22:23;10.07;;;8.50;;
34916;SDS011;21126;48.308;11.750;2022-08-18T11:25:01;9.47;;;8.10;;
34916;SDS011;21126;48.308;11.750;2022-08-18T11:27:44;11.03;;;8.03;;
34916;SDS011;21126;48.308;11.750;2022-08-18T11:30:13;13.50;;;7.63;;
34916;SDS011;21126;48.308;11.750;2022-08-18T11:32:42;11.97;;;7.80;;
34916;SDS011;21126;48.308;11.750;2022-08-18T11:35:19;12.20;;;7.80;;
34916;SDS011;21126;48.308;11.750;2022-08-18T11:38:00;11.57;;;7.20;;
34916;SDS011;21126;48.308;11.750;2022-08-18T11:43:30;8.47;;;6.93;;
34916;SDS011;21126;48.308;11.750;2022-08-18T11:48:58;8.30;;;7.17;;
34916;SDS011;21126;48.308;11.750;2022-08-18T11:51:52;9.17;;;7.50;;
34916;SDS011;21126;48.308;11.750;2022-08-18T11:54:45;7.90;;;7.10;;
34916;SDS011;21126;48.308;11.750;2022-08-18T11:57:26;12.17;;;6.90;;
34916;SDS011;21126;48.308;11.750;2022-08-18T12:03:09;8.50;;;6.70;;
34916;SDS011;21126;48.308;11.750;2022-08-18T12:06:46;9.73;;;7.17;;
34916;SDS011;21126;48.308;11.750;2022-08-18T12:11:31;9.27;;;7.17;;
34916;SDS011;21126;48.308;11.750;2022-08-18T12:14:08;8.17;;;7.17;;
34916;SDS011;21126;48.308;11.750;2022-08-18T12:17:06;10.40;;;7.10;;
34916;SDS011;21126;48.308;11.750;2022-08-18T12:19:33;11.53;;;6.40;;
34916;SDS011;21126;48.308;11.750;2022-08-18T12:22:00;8.40;;;6.53;;
34916;SDS011;21126;48.308;11.750;2022-08-18T12:24:43;9.17;;;7.27;;
34916;SDS011;21126;48.308;11.750;2022-08-18T12:27:13;8.70;;;7.27;;
34916;SDS011;21126;48.308;11.750;2022-08-18T12:29:47;8.27;;;6.90;;
34916;SDS011;21126;48.308;11.750;2022-08-18T12:32:16;8.47;;;6.70;;
34916;SDS011;21126;48.308;11.750;2022-08-18T12:35:04;8.70;;;6.80;;
34916;SDS011;21126;48.308;11.750;2022-08-18T12:37:34;8.13;;;7.00;;
34916;SDS011;21126;48.308;11.750;2022-08-18T12:40:23;13.00;;;7.83;;
34916;SDS011;21126;48.308;11.750;2022-08-18T12:42:51;12.87;;;8.00;;
34916;SDS011;21126;48.308;11.750;2022-08-18T12:45:21;9.80;;;8.87;;
34916;SDS011;21126;48.308;11.750;2022-08-18T12:47:49;10.50;;;8.10;;
34916;SDS011;21126;48.308;11.750;2022-08-18T12:50:17;10.03;;;9.17;;
34916;SDS011;21126;48.308;11.750;2022-08-18T12:52:44;9.50;;;8.50;;
34916;SDS011;21126;48.308;11.750;2022-08-18T12:55:12;9.47;;;8.57;;
34916;SDS011;21126;48.308;11.750;2022-08-18T12:58:03;9.60;;;8.60;;
34916;SDS011;21126;48.308;11.750;2022-08-18T13:00:55;13.13;;;9.87;;
34916;SDS011;21126;48.308;11.750;2022-08-18T13:03:22;9.90;;;8.90;;
34916;SDS011;21126;48.308;11.750;2022-08-18T13:05:52;9.63;;;8.63;;
34916;SDS011;21126;48.308;11.750;2022-08-18T13:08:20;13.23;;;9.20;;
34916;SDS011;21126;48.308;11.750;2022-08-18T13:10:58;11.40;;;9.47;;
34916;SDS011;21126;48.308;11.750;2022-08-18T13:13:40;10.90;;;8.83;;
34916;SDS011;21126;48.308;11.750;2022-08-18T13:16:08;9.97;;;8.80;;
34916;SDS011;21126;48.308;11.750;2022-08-18T13:18:56;9.40;;;8.03;;
34916;SDS011;21126;48.308;11.750;2022-08-18T13:21:24;9.70;;;8.60;;
34916;SDS011;21126;48.308;11.750;2022-08-18T13:24:04;12.00;;;7.83;;
34916;SDS011;21126;48.308;11.750;2022-08-18T13:26:36;9.43;;;8.53;;
34916;SDS011;21126;48.308;11.750;2022-08-18T13:29:10;9.43;;;8.53;;
34916;SDS011;21126;48.308;11.750;2022-08-18T13:31:39;9.03;;;8.13;;
34916;SDS011;21126;48.308;11.750;2022-08-18T13:34:14;10.40;;;7.87;;
34916;SDS011;21126;48.308;11.750;2022-08-18T13:36:45;10.20;;;8.43;;
34916;SDS011;21126;48.308;11.750;2022-08-18T13:39:14;9.67;;;8.33;;
34916;SDS011;21126;48.308;11.750;2022-08-18T13:41:44;9.17;;;8.10;;
34916;SDS011;21126;48.308;11.750;2022-08-18T13:44:14;10.70;;;8.97;;
34916;SDS011;21126;48.308;11.750;2022-08-18T13:46:44;10.57;;;8.37;;
34916;SDS011;21126;48.308;11.750;2022-08-18T13:49:14;8.70;;;7.90;;
34916;SDS011;21126;48.308;11.750;2022-08-18T13:51:54;10.57;;;7.60;;
34916;SDS011;21126;48.308;11.750;2022-08-18T13:54:27;13.13;;;8.77;;
34916;SDS011;21126;48.308;11.750;2022-08-18T13:57:00;13.23;;;8.47;;
34916;SDS011;21126;48.308;11.750;2022-08-18T13:59:29;9.50;;;8.50;;
34916;SDS011;21126;48.308;11.750;2022-08-18T14:02:02;7.90;;;7.20;;
34916;SDS011;21126;48.308;11.750;2022-08-18T14:04:35;9.00;;;7.80;;
34916;SDS011;21126;48.308;11.750;2022-08-18T14:07:04;8.30;;;7.50;;
34916;SDS011;21126;48.308;11.750;2022-08-18T14:09:37;8.60;;;7.30;;
34916;SDS011;21126;48.308;11.750;2022-08-18T14:12:08;8.07;;;7.27;;
34916;SDS011;21126;48.308;11.750;2022-08-18T14:14:50;8.97;;;7.80;;
34916;SDS011;21126;48.308;11.750;2022-08-18T14:17:21;9.07;;;8.10;;
34916;SDS011;21126;48.308;11.750;2022-08-18T14:19:52;8.93;;;7.90;;
34916;SDS011;21126;48.308;11.750;2022-08-18T14:22:46;10.77;;;8.00;;
34916;SDS011;21126;48.308;11.750;2022-08-18T14:25:34;8.47;;;7.40;;
34916;SDS011;21126;48.308;11.750;2022-08-18T14:28:21;8.00;;;7.30;;
34916;SDS011;21126;48.308;11.750;2022-08-18T14:30:50;8.30;;;7.50;;
34916;SDS011;21126;48.308;11.750;2022-08-18T14:33:20;11.53;;;7.97;;
34916;SDS011;21126;48.308;11.750;2022-08-18T14:36:12;9.97;;;9.00;;
34916;SDS011;21126;48.308;11.750;2022-08-18T14:38:40;8.20;;;7.40;;
34916;SDS011;21126;48.308;11.750;2022-08-18T14:41:09;8.60;;;7.53;;
34916;SDS011;21126;48.308;11.750;2022-08-18T14:43:40;11.17;;;7.90;;
34916;SDS011;21126;48.308;11.750;2022-08-18T14:46:30;16.50;;;8.07;;
34916;SDS011;21126;48.308;11.750;2022-08-18T14:48:58;11.83;;;7.93;;
34916;SDS011;21126;48.308;11.750;2022-08-18T14:51:29;10.77;;;8.93;;
34916;SDS011;21126;48.308;11.750;2022-08-18T14:53:58;15.20;;;8.90;;
34916;SDS011;21126;48.308;11.750;2022-08-18T14:56:27;12.90;;;8.20;;
34916;SDS011;21126;48.308;11.750;2022-08-18T14:59:06;21.77;;;8.30;;
34916;SDS011;21126;48.308;11.750;2022-08-18T15:01:38;11.37;;;8.20;;
34916;SDS011;21126;48.308;11.750;2022-08-18T15:04:07;10.23;;;7.77;;
34916;SDS011;21126;48.308;11.750;2022-08-18T15:06:44;10.43;;;8.03;;
34916;SDS011;21126;48.308;11.750;2022-08-18T15:09:22;14.50;;;8.10;;
34916;SDS011;21126;48.308;11.750;2022-08-18T15:11:56;11.80;;;8.60;;
34916;SDS011;21126;48.308;11.750;2022-08-18T15:14:25;11.70;;;9.20;;
34916;SDS011;21126;48.308;11.750;2022-08-18T15:16:59;9.07;;;8.00;;
34916;SDS011;21126;48.308;11.750;2022-08-18T15:19:39;10.83;;;8.60;;
34916;SDS011;21126;48.308;11.750;2022-08-18T15:22:26;8.40;;;7.60;;
34916;SDS011;21126;48.308;11.750;2022-08-18T15:25:13;9.90;;;8.73;;
34916;SDS011;21126;48.308;11.750;2022-08-18T15:27:59;9.63;;;7.33;;
34916;SDS011;21126;48.308;11.750;2022-08-18T15:30:26;8.43;;;7.63;;
34916;SDS011;21126;48.308;11.750;2022-08-18T15:32:54;11.27;;;8.47;;
34916;SDS011;21126;48.308;11.750;2022-08-18T15:35:24;11.20;;;7.07;;
34916;SDS011;21126;48.308;11.750;2022-08-18T15:37:52;8.50;;;7.13;;
34916;SDS011;21126;48.308;11.750;2022-08-18T15:40:24;11.00;;;8.37;;
34916;SDS011;21126;48.308;11.750;2022-08-18T15:43:00;10.10;;;7.90;;
34916;SDS011;21126;48.308;11.750;2022-08-18T15:45:36;8.30;;;7.60;;
34916;SDS011;21126;48.308;11.750;2022-08-18T15:48:24;9.67;;;6.90;;
34916;SDS011;21126;48.308;11.750;2022-08-18T15:50:53;7.83;;;7.03;;
34916;SDS011;21126;48.308;11.750;2022-08-18T15:53:23;10.97;;;7.50;;
34916;SDS011;21126;48.308;11.750;2022-08-18T15:55:55;11.97;;;8.03;;
34916;SDS011;21126;48.308;11.750;2022-08-18T15:58:23;8.97;;;7.40;;
34916;SDS011;21126;48.308;11.750;2022-08-18T16:00:55;11.80;;;7.10;;
34916;SDS011;21126;48.308;11.750;2022-08-18T16:03:27;14.50;;;8.53;;
34916;SDS011;21126;48.308;11.750;2022-08-18T16:05:57;11.30;;;8.10;;
34916;SDS011;21126;48.308;11.750;2022-08-18T16:08:26;15.57;;;7.97;;
34916;SDS011;21126;48.308;11.750;2022-08-18T16:10:53;9.93;;;8.03;;
34916;SDS011;21126;48.308;11.750;2022-08-18T16:13:21;18.53;;;9.20;;
34916;SDS011;21126;48.308;11.750;2022-08-18T16:15:51;9.07;;;7.30;;
34916;SDS011;21126;48.308;11.750;2022-08-18T16:18:20;12.20;;;8.13;;
34916;SDS011;21126;48.308;11.750;2022-08-18T16:20:47;12.50;;;8.10;;
34916;SDS011;21126;48.308;11.750;2022-08-18T16:23:21;18.00;;;7.50;;
34916;SDS011;21126;48.308;11.750;2022-08-18T16:25:48;9.33;;;7.60;;
34916;SDS011;21126;48.308;11.750;2022-08-18T16:28:15;13.40;;;8.30;;
34916;SDS011;21126;48.308;11.750;2022-08-18T16:30:42;10.60;;;7.80;;
34916;SDS011;21126;48.308;11.750;2022-08-18T16:33:12;13.63;;;8.20;;
34916;SDS011;21126;48.308;11.750;2022-08-18T16:35:39;10.63;;;7.43;;
34916;SDS011;21126;48.308;11.750;2022-08-18T16:38:10;9.63;;;7.70;;
34916;SDS011;21126;48.308;11.750;2022-08-18T16:40:37;10.20;;;8.17;;
34916;SDS011;21126;48.308;11.750;2022-08-18T16:43:06;10.63;;;8.10;;
34916;SDS011;21126;48.308;11.750;2022-08-18T16:45:37;15.13;;;8.10;;
34916;SDS011;21126;48.308;11.750;2022-08-18T16:48:08;8.97;;;7.70;;
34916;SDS011;21126;48.308;11.750;2022-08-18T16:50:41;16.37;;;7.83;;
34916;SDS011;21126;48.308;11.750;2022-08-18T16:53:10;10.30;;;7.30;;
34916;SDS011;21126;48.308;11.750;2022-08-18T16:55:37;7.70;;;6.90;;
34916;SDS011;21126;48.308;11.750;2022-08-18T16:58:04;9.37;;;7.57;;
34916;SDS011;21126;48.308;11.750;2022-08-18T17:00:49;10.30;;;7.60;;
34916;SDS011;21126;48.308;11.750;2022-08-18T17:03:43;13.73;;;7.90;;
34916;SDS011;21126;48.308;11.750;2022-08-18T17:06:38;16.80;;;8.17;;
34916;SDS011;21126;48.308;11.750;2022-08-18T17:09:13;12.63;;;8.37;;
34916;SDS011;21126;48.308;11.750;2022-08-18T17:11:41;27.63;;;10.13;;
34916;SDS011;21126;48.308;11.750;2022-08-18T17:14:17;27.60;;;10.90;;
34916;SDS011;21126;48.308;11.750;2022-08-18T17:16:47;37.53;;;11.77;;
34916;SDS011;21126;48.308;11.750;2022-08-18T17:19:21;26.37;;;11.10;;
34916;SDS011;21126;48.308;11.750;2022-08-18T17:21:51;25.33;;;11.20;;
34916;SDS011;21126;48.308;11.750;2022-08-18T17:24:19;20.13;;;8.93;;
34916;SDS011;21126;48.308;11.750;2022-08-18T17:32:56;12.70;;;8.37;;
34916;SDS011;21126;48.308;11.750;2022-08-18T17:35:35;10.50;;;7.30;;
34916;SDS011;21126;48.308;11.750;2022-08-18T17:39:07;14.97;;;8.70;;
34916;SDS011;21126;48.308;11.750;2022-08-18T17:41:19;9.27;;;8.20;;
34916;SDS011;21126;48.308;11.750;2022-08-18T17:43:46;29.60;;;9.23;;
34916;SDS011;21126;48.308;11.750;2022-08-18T17:48:58;24.60;;;9.70;;
34916;SDS011;21126;48.308;11.750;2022-08-18T17:51:42;13.80;;;9.40;;
34916;SDS011;21126;48.308;11.750;2022-08-18T17:57:09;19.07;;;8.30;;
34916;SDS011;21126;48.308;11.750;2022-08-18T18:02:43;15.93;;;8.60;;
34916;SDS011;21126;48.308;11.750;2022-08-18T18:05:14;10.63;;;8.83;;
34916;SDS011;21126;48.308;11.750;2022-08-18T18:10:26;11.03;;;8.70;;